Time;durP1;ratioP1;P1;durP2;ratioP2;P2;SDS_P1;SDS_P2;PMS_P1;PMS_P2;Temp;Humidity;BMP_temperature;BMP_pressure;BME280_temperature;BME280_humidity;BME280_pressure;Samples;Min_cycle;Max_cycle;Signal;HPM_P1;HPM_P2
2021/12/24 00:01:26;;;;;;;41.55;23.85;;;;;;;1.61;91.67;97418.94;6214544;23;19997;-90
2021/12/24 00:03:52;;;;;;;43.17;23.55;;;;;;;1.84;91.31;97450.53;6189551;23;20087;-90
2021/12/24 00:06:17;;;;;;;32.58;21.75;;;;;;;1.17;91.59;97328.25;6214569;23;20027;-90
2021/12/24 00:08:45;;;;;;;38.92;23.17;;;;;;;1.12;91.08;97331.56;6189762;23;20024;-90
2021/12/24 00:11:11;;;;;;;44.45;25.45;;;;;;;1.85;91.60;97436.38;6189501;23;20084;-91
2021/12/24 00:13:41;;;;;;;40.30;23.73;;;;;;;2.07;91.94;97476.88;6189131;23;20024;-90
2021/12/24 00:16:16;;;;;;;36.70;23.05;;;;;;;1.66;91.49;97409.34;6189129;23;20001;-90
2021/12/24 00:18:48;;;;;;;34.47;21.25;;;;;;;1.26;91.72;97343.47;6189577;23;20004;-90
2021/12/24 00:37:21;;;;;;;36.78;20.20;;;;;;;2.04;91.58;97445.75;6172143;23;20019;-90
2021/12/24 00:40:01;;;;;;;36.55;20.40;;;;;;;2.22;90.88;97471.97;6189270;23;20000;-90
2021/12/24 00:42:27;;;;;;;33.28;20.05;;;;;;;2.16;90.86;97454.47;6167167;23;20009;-90
2021/12/24 00:44:52;;;;;;;38.25;20.70;;;;;;;2.04;90.96;97435.22;6164216;23;20178;-90
2021/12/24 00:47:17;;;;;;;33.40;18.80;;;;;;;2.19;90.75;97459.25;6163957;23;20515;-91
2021/12/24 00:49:43;;;;;;;30.45;18.45;;;;;;;2.40;90.54;97490.28;6163966;23;20074;-90
2021/12/24 00:55:02;;;;;;;31.17;17.67;;;;;;;2.22;90.36;97453.53;6192983;23;20016;-90
2021/12/24 00:57:28;;;;;;;32.35;17.77;;;;;;;2.21;90.51;97439.56;6165769;23;20012;-91
2021/12/24 00:59:53;;;;;;;30.42;18.23;;;;;;;2.47;90.30;97477.78;6164304;23;20092;-90
2021/12/24 01:02:19;;;;;;;32.20;19.02;;;;;;;2.26;90.42;97439.69;6163928;23;20016;-90
2021/12/24 01:04:44;;;;;;;27.10;18.52;;;;;;;2.50;90.58;97477.31;6188560;23;20007;-90
2021/12/24 01:07:10;;;;;;;30.75;18.77;;;;;;;2.51;91.10;97478.91;6164224;23;20009;-90
2021/12/24 01:09:36;;;;;;;27.70;17.17;;;;;;;2.25;90.80;97422.28;6188637;23;20012;-90
2021/12/24 01:12:01;;;;;;;32.30;18.00;;;;;;;2.53;91.32;97468.16;6164349;23;20011;-90
2021/12/24 01:14:28;;;;;;;30.13;17.15;;;;;;;2.36;91.62;97433.06;6163937;23;20008;-90
2021/12/24 01:19:48;;;;;;;27.40;17.48;;;;;;;2.23;91.55;97400.66;6152017;23;20016;-90
2021/12/24 01:24:53;;;;;;;28.00;16.80;;;;;;;2.52;92.03;97441.03;6215644;23;20008;-90
2021/12/24 01:27:54;;;;;;;24.30;15.77;;;;;;;2.60;91.55;97445.94;6168921;23;20012;-90
2021/12/24 01:38:18;;;;;;;20.40;13.32;;;;;;;2.41;91.17;97404.97;6215001;23;20102;-90
2021/12/24 01:43:19;;;;;;;19.85;12.82;;;;;;;2.19;91.65;97367.94;6198505;23;20100;-90
2021/12/24 01:45:50;;;;;;;21.35;13.65;;;;;;;2.32;91.70;97381.88;6188794;23;20004;-91
2021/12/24 01:48:17;;;;;;;20.77;13.63;;;;;;;2.64;91.67;97414.69;6163859;23;20335;-91
2021/12/24 01:50:45;;;;;;;22.60;14.30;;;;;;;2.43;92.07;97383.69;6163755;23;20004;-90
2021/12/24 01:53:12;;;;;;;16.15;11.57;;;;;;;2.51;91.68;97399.91;6188466;23;20034;-90
2021/12/24 01:55:38;;;;;;;17.70;11.90;;;;;;;2.51;91.89;97392.00;6163447;23;20009;-90
2021/12/24 01:58:05;;;;;;;15.40;11.13;;;;;;;2.56;91.95;97407.13;6188417;23;20004;-90
2021/12/24 02:00:38;;;;;;;17.27;10.98;;;;;;;2.51;92.08;97389.38;6188618;23;20461;-90
2021/12/24 02:03:06;;;;;;;16.08;9.95;;;;;;;2.48;91.63;97383.78;6164053;23;20015;-91
2021/12/24 02:05:31;;;;;;;13.40;9.30;;;;;;;2.79;91.47;97422.88;6188478;23;20062;-90
2021/12/24 02:07:58;;;;;;;14.75;10.55;;;;;;;2.85;91.62;97433.28;6138898;23;20290;-90
2021/12/24 02:10:24;;;;;;;13.07;8.82;;;;;;;2.76;91.49;97420.69;6188576;23;20001;-90
2021/12/24 02:12:51;;;;;;;19.13;10.63;;;;;;;2.49;91.67;97346.69;6188184;23;19996;-91
2021/12/24 02:15:31;;;;;;;14.10;10.00;;;;;;;2.71;91.72;97381.88;6163780;23;20453;-90
2021/12/24 02:28:52;;;;;;;12.52;9.38;;;;;;;2.77;92.11;97352.00;6192129;23;20100;-90
2021/12/24 02:31:21;;;;;;;14.35;8.18;;;;;;;2.56;91.60;97331.56;6138707;23;20032;-90
2021/12/24 02:33:48;;;;;;;10.70;8.00;;;;;;;3.01;91.48;97400.13;6163332;23;20012;-90
2021/12/24 02:36:14;;;;;;;12.23;8.68;;;;;;;2.56;91.75;97331.56;6188311;23;20005;-90
2021/12/24 02:38:40;;;;;;;11.25;8.35;;;;;;;2.69;91.79;97333.09;6163740;23;20013;-90
2021/12/24 02:41:07;;;;;;;10.63;7.97;;;;;;;2.72;91.83;97332.66;6163695;23;20010;-90
2021/12/24 02:43:33;;;;;;;12.27;8.95;;;;;;;3.01;91.45;97376.41;6163121;23;20030;-90
2021/12/24 02:46:07;;;;;;;9.63;7.25;;;;;;;2.40;91.35;97281.50;6163720;23;20459;-90
2021/12/24 02:48:57;;;;;;;10.07;7.78;;;;;;;2.15;91.06;97250.22;6164951;23;20015;-90
2021/12/24 02:54:06;;;;;;;11.85;9.02;;;;;;;2.44;91.16;97296.59;6214962;23;20012;-90
2021/12/24 02:56:34;;;;;;;11.23;8.88;;;;;;;3.15;90.99;97400.63;6189897;23;20001;-90
2021/12/24 02:59:05;;;;;;;12.57;7.97;;;;;;;2.37;91.13;97263.53;6189769;23;20008;-90
2021/12/24 03:01:40;;;;;;;11.55;8.10;;;;;;;2.53;91.51;97281.22;6189782;23;20005;-91
2021/12/24 03:04:06;;;;;;;12.68;8.77;;;;;;;3.18;90.77;97410.69;6214896;23;20001;-91
2021/12/24 03:06:38;;;;;;;10.77;8.20;;;;;;;3.19;91.03;97370.91;6190028;23;20423;-90
2021/12/24 03:09:09;;;;;;;13.80;9.55;;;;;;;2.09;91.34;97190.63;6189874;23;20010;-90
2021/12/24 03:11:36;;;;;;;14.90;9.35;;;;;;;2.17;91.68;97214.75;6189828;23;20344;-90
2021/12/24 03:14:03;;;;;;;17.38;9.70;;;;;;;2.38;91.61;97251.97;6190069;23;20359;-90
2021/12/24 03:16:29;;;;;;;12.65;9.75;;;;;;;3.28;91.11;97384.50;6189711;23;20080;-90
2021/12/24 03:18:54;;;;;;;13.60;9.35;;;;;;;2.91;91.68;97308.50;6189954;23;20008;-91
2021/12/24 03:21:27;;;;;;;11.98;9.10;;;;;;;2.59;90.66;97275.81;6190022;23;20003;-91
2021/12/24 03:26:28;;;;;;;11.75;7.95;;;;;;;2.43;90.09;97229.16;6226494;23;20004;-90
2021/12/24 03:28:53;;;;;;;12.65;9.18;;;;;;;2.67;90.60;97250.91;6189569;23;20012;-90
2021/12/24 03:31:19;;;;;;;11.40;8.07;;;;;;;2.63;89.94;97245.31;6189527;23;20004;-90
2021/12/24 03:33:44;;;;;;;11.68;8.25;;;;;;;2.78;89.58;97269.28;6165309;23;20004;-91
2021/12/24 03:36:10;;;;;;;12.63;9.00;;;;;;;2.82;89.62;97273.03;6189588;23;20004;-90
2021/12/24 03:38:36;;;;;;;11.07;8.57;;;;;;;2.68;89.91;97242.78;6189602;23;20001;-89
2021/12/24 03:41:02;;;;;;;12.65;8.95;;;;;;;2.24;89.61;97162.75;6189730;23;20001;-90
2021/12/24 03:43:28;;;;;;;11.77;8.18;;;;;;;3.40;90.04;97343.88;6165038;23;20008;-89
2021/12/24 03:48:28;;;;;;;11.50;7.78;;;;;;;2.58;89.35;97216.25;6189966;23;20068;-91
2021/12/24 03:51:06;;;;;;;10.02;7.85;;;;;;;2.66;89.49;97215.88;6189824;23;20011;-90
2021/12/24 03:56:18;;;;;;;9.43;7.25;;;;;;;2.39;88.69;97180.66;6215973;23;20039;-90
2021/12/24 03:58:44;;;;;;;11.68;8.07;;;;;;;2.79;89.03;97234.00;6189659;23;20351;-90
2021/12/24 04:01:10;;;;;;;9.15;6.60;;;;;;;2.85;88.82;97246.22;6189516;23;20015;-91
2021/12/24 04:03:36;;;;;;;10.77;7.72;;;;;;;2.43;88.82;97170.44;6214618;23;20331;-90
2021/12/24 04:06:02;;;;;;;8.90;6.55;;;;;;;2.90;88.92;97235.78;6189138;23;20147;-91
2021/12/24 04:08:30;;;;;;;9.63;7.97;;;;;;;3.51;89.36;97347.47;6189626;23;20009;-91
2021/12/24 04:10:56;;;;;;;11.35;8.35;;;;;;;3.02;89.37;97273.38;6189581;23;20004;-90
2021/12/24 04:13:21;;;;;;;10.30;7.55;;;;;;;2.93;89.28;97234.47;6189748;23;20007;-91
2021/12/24 04:15:47;;;;;;;12.10;8.45;;;;;;;2.89;89.37;97234.16;6189310;23;20331;-92
2021/12/24 04:19:04;;;;;;;11.43;8.30;;;;;;;2.27;89.63;97122.78;6189519;23;20402;-91
2021/12/24 04:26:37;;;;;;;13.07;8.60;;;;;;;2.41;90.04;97143.53;6216008;23;20454;-91
2021/12/24 04:29:11;;;;;;;10.23;7.18;;;;;;;3.40;90.65;97292.97;6189404;23;20008;-90
2021/12/24 04:31:47;;;;;;;11.70;7.68;;;;;;;3.58;90.34;97311.94;6189218;23;20309;-90
2021/12/24 04:34:13;;;;;;;11.95;7.55;;;;;;;2.77;89.76;97178.13;6189104;23;20443;-91
2021/12/24 05:04:09;;;;;;;10.55;8.55;;;;;;;2.77;90.21;97182.59;6215421;23;20011;-90
2021/12/24 05:07:23;;;;;;;10.43;7.25;;;;;;;3.60;90.43;97296.69;6188810;23;20040;-90
2021/12/24 05:09:52;;;;;;;10.10;6.55;;;;;;;3.80;90.12;97328.63;6188882;23;20014;-90
2021/12/24 05:12:23;;;;;;;13.50;9.50;;;;;;;2.63;89.88;97129.44;6187055;23;20004;-90
2021/12/24 05:14:54;;;;;;;11.75;8.32;;;;;;;3.14;90.30;97210.06;6188840;23;20478;-91
2021/12/24 05:23:25;;;;;;;11.30;7.15;;;;;;;2.81;89.31;97173.97;6215040;23;20047;-91
2021/12/24 05:26:18;;;;;;;9.90;7.35;;;;;;;2.97;89.99;97206.63;6213627;23;20024;-90
2021/12/24 05:28:49;;;;;;;12.25;7.78;;;;;;;3.25;89.94;97232.09;6188422;23;20075;-90
2021/12/24 05:31:21;;;;;;;14.25;7.38;;;;;;;2.64;89.70;97146.03;6187608;23;20199;-90
2021/12/24 05:33:53;;;;;;;11.68;7.90;;;;;;;2.80;89.94;97161.84;6187747;23;20395;-91
2021/12/24 05:36:49;;;;;;;8.90;7.68;;;;;;;3.21;90.00;97229.13;6188531;23;20475;-90
2021/12/24 05:39:20;;;;;;;8.57;6.72;;;;;;;2.77;89.16;97167.59;6188498;23;20079;-90
2021/12/24 05:42:00;;;;;;;9.35;7.00;;;;;;;2.96;89.44;97194.50;6213848;23;20005;-91
2021/12/24 05:44:39;;;;;;;;;;;;;;;;;;;;;
2021/12/24 05:47:14;;;;;;;9.57;6.45;;;;;;;2.95;88.57;97191.03;6215290;23;20084;-91
2021/12/24 05:49:50;;;;;;;11.68;6.47;;;;;;;2.87;89.65;97166.94;6212857;23;20496;-91
2021/12/24 05:52:59;;;;;;;11.93;9.27;;;;;;;2.87;89.08;97175.66;6188560;23;20000;-90
2021/12/24 05:55:36;;;;;;;8.43;6.90;;;;;;;3.95;89.27;97325.44;6186923;23;20394;-90
2021/12/24 05:58:13;;;;;;;9.77;6.57;;;;;;;3.51;89.63;97252.50;6188241;23;20442;-91
2021/12/24 06:01:01;;;;;;;10.20;6.63;;;;;;;3.95;89.26;97333.34;6213137;23;20012;-91
2021/12/24 06:03:33;;;;;;;9.57;6.70;;;;;;;3.32;89.54;97222.19;6185688;23;20007;-90
2021/12/24 06:09:00;;;;;;;7.07;5.82;;;;;;;3.30;88.72;97214.50;6215007;23;20054;-90
2021/12/24 06:11:35;;;;;;;8.18;5.90;;;;;;;2.78;90.12;97128.88;6187544;23;20013;-90
2021/12/24 06:14:16;;;;;;;6.82;5.35;;;;;;;3.30;89.69;97217.13;6213077;23;20442;-91
2021/12/24 06:17:16;;;;;;;6.30;5.38;;;;;;;3.00;89.56;97163.97;6188099;23;20004;-91
2021/12/24 06:19:59;;;;;;;10.05;5.78;;;;;;;2.93;89.93;97158.06;6188200;23;20005;-90
2021/12/24 06:22:36;;;;;;;8.05;6.35;;;;;;;2.90;90.19;97155.94;6188076;23;20004;-91
2021/12/24 06:25:13;;;;;;;8.57;6.75;;;;;;;3.09;90.15;97180.19;6187849;23;20095;-90
2021/12/24 06:33:51;;;;;;;6.88;4.53;;;;;;;3.08;90.21;97166.19;6214360;23;20032;-90
2021/12/24 06:36:44;;;;;;;6.18;4.55;;;;;;;3.74;90.61;97282.13;6164104;23;20012;-91
2021/12/24 06:39:29;;;;;;;7.03;5.38;;;;;;;3.49;89.74;97254.59;6188146;23;20046;-91
2021/12/24 06:42:20;;;;;;;8.07;5.70;;;;;;;4.17;90.99;97346.56;6187445;23;20265;-90
2021/12/24 06:45:10;;;;;;;7.32;5.38;;;;;;;2.90;90.74;97153.31;6187498;23;20042;-91
2021/12/24 06:51:32;;;;;;;6.68;4.88;;;;;;;3.28;91.42;97218.41;6214343;23;20016;-91
2021/12/24 06:54:55;;;;;;;6.20;4.63;;;;;;;3.14;91.77;97194.25;6209544;23;20008;-91
2021/12/24 06:57:53;;;;;;;5.88;4.95;;;;;;;3.96;91.65;97316.44;6187763;23;20032;-91
2021/12/24 07:01:08;;;;;;;4.97;4.25;;;;;;;3.15;92.15;97200.28;6183604;23;20005;-90
2021/12/24 07:07:55;;;;;;;5.13;4.45;;;;;;;3.00;91.95;97179.78;6214237;23;20009;-90
2021/12/24 07:10:53;;;;;;;6.35;4.68;;;;;;;3.61;92.54;97281.66;6187805;23;20031;-91
2021/12/24 07:13:35;;;;;;;5.07;4.53;;;;;;;3.47;92.55;97238.22;6212709;23;20032;-91
2021/12/24 07:16:26;;;;;;;7.45;5.55;;;;;;;4.05;92.90;97320.28;6181047;23;20025;-91
2021/12/24 07:19:28;;;;;;;5.90;5.28;;;;;;;3.75;93.96;97273.19;6163824;23;20008;-91
2021/12/24 07:22:20;;;;;;;6.55;5.40;;;;;;;3.49;94.31;97213.19;6212519;23;20009;-91
2021/12/24 07:25:12;;;;;;;7.07;5.55;;;;;;;3.44;94.20;97201.78;6187754;23;20005;-90
2021/12/24 07:31:28;;;;;;;10.00;7.57;;;;;;;3.91;94.64;97274.16;6213528;23;20028;-90
2021/12/24 07:37:42;;;;;;;7.00;5.13;;;;;;;3.68;94.73;97232.97;6158613;23;20021;-91
2021/12/24 07:44:34;;;;;;;11.27;7.32;;;;;;;3.87;94.52;97245.88;6154820;23;20499;-91
2021/12/24 07:57:28;;;;;;;15.20;8.90;;;;;;;4.54;95.62;97353.63;6183102;23;20013;-91
2021/12/24 08:04:22;;;;;;;13.75;8.30;;;;;;;4.57;95.53;97353.16;6215913;23;20017;-90
2021/12/24 08:07:12;;;;;;;16.55;9.20;;;;;;;4.59;94.91;97367.97;6095289;23;20006;-91
2021/12/24 08:10:11;;;;;;;;;;;;;;;;;;;;;
2021/12/24 08:13:43;;;;;;;;;;;;;;;;;;;;;
2021/12/24 08:20:13;;;;;;;13.55;9.90;;;;;;;3.76;95.27;97232.53;6208380;23;20447;-90
2021/12/24 08:23:04;;;;;;;16.17;10.82;;;;;;;3.61;95.28;97213.06;6189286;23;20012;-90
2021/12/24 08:29:13;;;;;;;;;;;;;;;;;;;;;
2021/12/24 08:35:24;;;;;;;16.88;10.18;;;;;;;4.30;94.47;97331.16;6205483;23;20009;-90
2021/12/24 08:38:10;;;;;;;14.10;9.57;;;;;;;4.12;94.41;97285.78;6188775;23;20055;-91
2021/12/24 08:40:53;;;;;;;;;;;;;;;4.66;94.27;97381.78;6187506;23;20004;-90
2021/12/24 08:43:34;;;;;;;11.55;7.75;;;;;;;4.63;93.26;97388.34;6148627;23;19912;-90
2021/12/24 08:46:37;;;;;;;;;;;;;;;;;;;;;
2021/12/24 08:52:46;;;;;;;15.05;9.38;;;;;;;3.74;92.18;97239.09;6211897;23;20004;-90
2021/12/24 08:58:57;;;;;;;15.60;9.25;;;;;;;4.42;92.52;97334.47;6199215;23;20004;-90
2021/12/24 09:01:52;;;;;;;;;;;;;;;;;;;;;
2021/12/24 09:14:18;;;;;;;12.45;8.85;;;;;;;4.23;91.09;97303.34;6191348;23;20012;-91
2021/12/24 09:17:31;;;;;;;13.30;10.00;;;;;;;4.17;90.99;97283.22;6188296;23;20007;-90
2021/12/24 09:20:39;;;;;;;17.10;9.10;;;;;;;3.64;91.20;97231.06;6187065;23;20008;-90
2021/12/24 09:23:24;;;;;;;15.15;10.52;;;;;;;3.72;90.86;97230.63;6187759;23;20012;-90
2021/12/24 09:26:23;;;;;;;;;;;;;;;;;;;;;
2021/12/24 09:29:12;;;;;;;16.35;9.75;;;;;;;4.80;90.78;97409.44;6215422;23;20075;-90
2021/12/24 09:32:29;;;;;;;;;;;;;;;;;;;;;
2021/12/24 09:35:25;;;;;;;12.70;8.02;;;;;;;3.72;89.92;97235.91;6121695;23;20009;-90
2021/12/24 09:38:20;;;;;;;15.65;9.63;;;;;;;4.03;90.25;97282.78;6188003;23;20012;-91
2021/12/24 09:40:58;;;;;;;16.27;9.70;;;;;;;4.23;90.24;97320.00;6188935;23;20031;-90
2021/12/24 09:44:08;;;;;;;13.70;9.25;;;;;;;3.85;90.12;97269.84;6187934;23;20009;-90
2021/12/24 09:50:14;;;;;;;16.02;9.93;;;;;;;4.41;89.85;97338.16;6215460;23;20008;-91
2021/12/24 09:52:54;;;;;;;17.02;9.80;;;;;;;4.84;90.65;97406.06;6187989;23;20008;-90
2021/12/24 09:55:43;;;;;;;11.18;8.60;;;;;;;3.77;90.57;97239.44;6188135;23;20027;-90
2021/12/24 09:58:30;;;;;;;14.65;10.10;;;;;;;3.98;90.24;97274.78;6188788;23;20427;-90
2021/12/24 10:01:34;;;;;;;;;;;;;;;;;;;;;
2021/12/24 10:04:24;;;;;;;;;;;;;;;;;;;;;
2021/12/24 10:07:10;;;;;;;13.77;9.32;;;;;;;3.65;89.74;97222.91;6214764;23;20068;-90
2021/12/24 10:09:41;;;;;;;13.50;9.37;;;;;;;3.81;89.41;97247.63;6212148;23;20005;-90
2021/12/24 10:12:26;;;;;;;12.52;8.95;;;;;;;4.22;89.58;97307.81;6188580;23;19999;-90
2021/12/24 10:15:19;;;;;;;14.88;9.75;;;;;;;3.87;89.66;97248.53;6187829;23;20005;-91
2021/12/24 10:17:59;;;;;;;15.93;9.25;;;;;;;3.85;88.88;97243.47;6187714;23;20009;-91
2021/12/24 10:21:05;;;;;;;16.92;10.10;;;;;;;4.06;89.58;97273.56;6187846;23;20004;-91
2021/12/24 10:23:50;;;;;;;18.15;9.95;;;;;;;3.76;89.72;97213.25;6213081;23;20008;-91
2021/12/24 10:27:04;;;;;;;12.98;9.02;;;;;;;4.52;88.88;97328.53;6188289;23;20063;-90
2021/12/24 10:30:08;;;;;;;17.40;9.60;;;;;;;3.82;88.56;97217.59;6188166;23;20077;-90
2021/12/24 10:32:50;;;;;;;16.80;10.68;;;;;;;3.78;89.16;97217.25;6187620;23;20331;-90
2021/12/24 10:35:27;;;;;;;14.65;9.05;;;;;;;4.25;88.93;97280.94;6213359;23;20004;-91
2021/12/24 10:38:21;;;;;;;15.05;9.07;;;;;;;4.89;89.11;97384.16;6213214;23;20015;-90
2021/12/24 10:41:05;;;;;;;;;;;;;;;;;;;;;
2021/12/24 10:43:46;;;;;;;14.98;8.98;;;;;;;4.48;88.75;97315.00;6215238;23;20083;-90
2021/12/24 10:46:28;;;;;;;13.35;8.80;;;;;;;4.03;88.56;97250.28;6188025;23;20015;-91
2021/12/24 10:49:23;;;;;;;15.93;9.23;;;;;;;3.77;89.16;97210.41;6188198;23;20004;-91
2021/12/24 10:52:15;;;;;;;14.65;9.73;;;;;;;4.04;88.05;97246.63;6188086;23;20035;-90
2021/12/24 10:55:08;;;;;;;12.63;8.73;;;;;;;4.70;89.30;97351.16;6188006;23;20096;-90
2021/12/24 10:57:54;;;;;;;16.73;10.00;;;;;;;4.07;88.67;97252.19;6187628;23;20378;-90
2021/12/24 11:01:12;;;;;;;18.33;9.13;;;;;;;3.87;88.97;97215.00;6188367;23;20020;-91
2021/12/24 11:03:48;;;;;;;24.27;10.43;;;;;;;3.90;89.24;97214.50;6188565;23;20019;-90
2021/12/24 11:06:26;;;;;;;18.23;10.50;;;;;;;4.32;88.78;97275.47;6188225;23;20010;-90
2021/12/24 11:09:16;;;;;;;16.48;9.45;;;;;;;4.29;89.36;97276.75;6213154;23;20382;-91
2021/12/24 11:11:55;;;;;;;16.55;9.63;;;;;;;3.93;89.15;97207.94;6187814;23;20007;-90
2021/12/24 11:14:54;;;;;;;;;;;;;;;;;;;;;
2021/12/24 11:17:42;;;;;;;16.65;9.75;;;;;;;3.95;89.31;97216.41;6210058;23;20091;-90
2021/12/24 11:20:24;;;;;;;16.40;10.90;;;;;;;3.93;89.19;97200.84;6189860;23;20010;-90
2021/12/24 11:22:59;;;;;;;16.17;9.57;;;;;;;4.83;89.73;97340.19;6190059;23;20009;-90
2021/12/24 11:25:46;;;;;;;21.70;11.15;;;;;;;4.07;89.70;97217.88;6188873;23;20079;-90
2021/12/24 11:28:34;;;;;;;18.80;10.30;;;;;;;4.26;89.73;97244.78;6189277;23;20331;-90
2021/12/24 11:31:34;;;;;;;19.73;9.57;;;;;;;3.92;89.37;97191.31;6189764;23;20012;-90
2021/12/24 11:34:16;;;;;;;16.70;9.48;;;;;;;4.18;90.14;97240.72;6189874;23;20513;-90
2021/12/24 11:37:18;;;;;;;18.98;10.00;;;;;;;3.99;90.14;97202.47;6189353;23;20016;-90
2021/12/24 11:40:06;;;;;;;15.15;10.52;;;;;;;4.63;90.00;97298.50;6189656;23;20016;-90
2021/12/24 11:42:41;;;;;;;16.90;9.55;;;;;;;4.17;89.29;97238.31;6190072;23;20331;-90
2021/12/24 11:45:27;;;;;;;17.58;10.07;;;;;;;4.43;89.97;97274.53;6189789;23;20327;-91
2021/12/24 11:48:12;;;;;;;18.33;11.60;;;;;;;4.59;90.21;97289.47;6189760;23;20359;-90
2021/12/24 11:50:52;;;;;;;19.25;10.20;;;;;;;4.69;89.77;97307.31;6189963;23;20028;-90
2021/12/24 11:53:46;;;;;;;20.85;10.57;;;;;;;4.15;90.16;97224.56;6189206;23;20424;-90
2021/12/24 11:56:23;;;;;;;18.92;9.77;;;;;;;4.92;90.00;97358.03;6204084;23;20008;-90
2021/12/24 11:59:25;;;;;;;;;;;;;;;;;;;;;
2021/12/24 12:02:05;;;;;;;16.80;10.32;;;;;;;4.93;90.16;97346.41;6193545;23;20398;-91
2021/12/24 12:04:45;;;;;;;24.02;13.10;;;;;;;4.11;90.11;97226.09;6214912;23;20031;-91
2021/12/24 12:11:23;;;;;;;19.00;11.15;;;;;;;5.14;90.00;97373.84;6204370;23;20008;-90
2021/12/24 12:14:31;;;;;;;18.35;12.05;;;;;;;4.56;89.45;97298.69;6188985;23;20000;-90
2021/12/24 12:17:42;;;;;;;18.80;11.35;;;;;;;4.70;90.14;97311.53;6215308;23;20005;-91
2021/12/24 12:21:02;;;;;;;18.45;10.52;;;;;;;5.12;90.10;97382.03;6185917;23;20005;-91
2021/12/24 12:31:08;;;;;;;18.30;11.65;;;;;;;5.12;90.38;97371.47;6215779;23;20015;-90
2021/12/24 12:33:47;;;;;;;19.65;10.68;;;;;;;4.90;90.29;97341.63;6188588;23;20004;-91
2021/12/24 12:36:54;;;;;;;22.13;11.73;;;;;;;4.14;89.21;97220.31;6189449;23;20352;-90
2021/12/24 12:40:02;;;;;;;16.10;10.77;;;;;;;5.13;90.03;97380.19;6188359;23;20008;-91
2021/12/24 12:43:08;;;;;;;19.40;10.85;;;;;;;5.14;89.22;97371.19;6156262;23;20546;-90
2021/12/24 12:46:04;;;;;;;19.20;11.52;;;;;;;4.92;89.44;97333.44;6189411;23;20428;-90
2021/12/24 12:48:49;;;;;;;19.40;10.05;;;;;;;4.08;89.19;97202.84;6165142;23;20035;-91
2021/12/24 12:51:47;;;;;;;18.92;10.63;;;;;;;4.13;89.39;97203.69;6212926;23;20094;-91
2021/12/24 12:54:46;;;;;;;18.02;11.02;;;;;;;5.15;89.25;97356.94;6188088;23;20020;-91
2021/12/24 13:01:18;;;;;;;19.98;13.10;;;;;;;4.91;90.23;97324.72;6207052;23;20009;-91
2021/12/24 13:07:35;;;;;;;18.95;10.93;;;;;;;5.17;89.85;97360.13;6201652;23;20317;-91
2021/12/24 13:10:21;;;;;;;17.02;11.82;;;;;;;4.76;89.65;97294.69;6214274;23;20008;-91
2021/12/24 13:13:12;;;;;;;;;;;;;;;;;;;;;
2021/12/24 13:16:09;;;;;;;14.23;9.00;;;;;;;4.36;89.51;97232.47;6215262;23;20072;-91
2021/12/24 13:29:27;;;;;;;;;;;;;;;;;;;;;
2021/12/24 13:32:47;;;;;;;;;;;;;;;;;;;;;
2021/12/24 13:36:20;;;;;;;20.00;11.15;;;;;;;4.25;90.62;97206.19;6194584;23;20025;-91
2021/12/24 13:39:07;;;;;;;17.63;10.15;;;;;;;4.03;91.06;97171.09;6213339;23;20087;-90
2021/12/24 13:41:49;;;;;;;19.95;11.63;;;;;;;5.21;91.26;97369.97;6188208;23;20001;-90
2021/12/24 13:44:52;;;;;;;22.77;12.65;;;;;;;5.23;90.83;97340.59;6213674;23;20016;-90
2021/12/24 14:04:15;;;;;;;22.13;12.07;;;;;;;4.30;91.94;97204.38;6214829;23;20027;-91
2021/12/24 14:07:16;;;;;;;;;;;;;;;;;;;;;
2021/12/24 14:10:16;;;;;;;22.67;13.32;;;;;;;4.18;91.21;97179.19;6215138;23;20109;-91
2021/12/24 14:13:22;;;;;;;;;;;;;;;;;;;;;
2021/12/24 14:19:17;;;;;;;26.00;14.38;;;;;;;4.20;91.33;97185.00;6214747;23;20506;-90
2021/12/24 14:22:21;;;;;;;23.73;14.57;;;;;;;4.63;90.99;97256.22;6188296;23;20004;-90
2021/12/24 14:25:30;;;;;;;22.73;13.73;;;;;;;4.20;91.09;97187.66;6186070;23;20004;-90
2021/12/24 14:28:10;;;;;;;23.25;12.98;;;;;;;4.29;91.11;97204.66;6211126;23;20032;-91
2021/12/24 14:31:44;;;;;;;;;;;;;;;;;;;;;
2021/12/24 14:34:38;;;;;;;22.17;12.48;;;;;;;4.18;90.99;97187.91;6191493;23;20103;-91
2021/12/24 14:38:03;;;;;;;;;;;;;;;;;;;;;
2021/12/24 14:41:23;;;;;;;;;;;;;;;;;;;;;
2021/12/24 14:47:39;;;;;;;17.13;11.07;;;;;;;4.34;90.79;97221.34;6125816;23;20012;-91
2021/12/24 14:51:03;;;;;;;;;;;;;;;;;;;;;
2021/12/24 14:53:54;;;;;;;21.63;10.60;;;;;;;4.43;90.97;97245.47;6184021;23;20092;-91
2021/12/24 14:59:51;;;;;;;17.00;10.90;;;;;;;4.29;91.21;97220.50;6196469;23;20351;-90
2021/12/24 15:03:28;;;;;;;;;;;;;;;;;;;;;
2021/12/24 15:06:30;;;;;;;;;;;;;;;;;;;;;
2021/12/24 15:12:40;;;;;;;18.33;10.00;;;;;;;4.07;91.16;97199.41;6195470;23;20008;-91
2021/12/24 15:16:01;;;;;;;20.70;10.48;;;;;;;5.02;90.65;97336.97;6190140;23;20427;-91
2021/12/24 15:19:10;;;;;;;;;;;;;;;;;;;;;
2021/12/24 15:22:19;;;;;;;17.33;10.13;;;;;;;4.20;91.25;97200.84;6065793;23;20090;-91
2021/12/24 15:25:24;;;;;;;;;;;;;;;;;;;;;
2021/12/24 15:32:13;;;;;;;16.38;9.60;;;;;;;4.31;91.72;97235.03;6154097;23;20009;-91
2021/12/24 15:35:03;;;;;;;15.20;9.50;;;;;;;4.43;91.23;97248.91;6057999;23;20007;-90
2021/12/24 15:41:12;;;;;;;12.43;8.30;;;;;;;4.07;91.08;97186.19;6104113;23;20092;-91
2021/12/24 15:43:54;;;;;;;18.60;9.30;;;;;;;5.11;91.23;97350.56;6188853;23;20000;-90
2021/12/24 15:46:34;;;;;;;15.75;9.38;;;;;;;4.25;91.08;97220.19;6189198;23;20039;-92
2021/12/24 15:49:00;;;;;;;16.15;9.27;;;;;;;5.26;91.38;97401.72;6189145;23;20455;-91
2021/12/24 15:51:49;;;;;;;13.13;8.60;;;;;;;4.42;91.06;97255.25;6187499;23;20070;-91
2021/12/24 15:54:46;;;;;;;16.90;8.93;;;;;;;5.28;91.55;97393.56;6213840;23;20015;-90
2021/12/24 15:58:01;;;;;;;;;;;;;;;;;;;;;
2021/12/24 16:00:57;;;;;;;19.85;11.48;;;;;;;4.59;91.51;97283.44;6216095;23;20080;-91
2021/12/24 16:07:14;;;;;;;17.00;8.63;;;;;;;4.61;91.60;97291.91;6216093;23;20092;-91
2021/12/24 16:10:05;;;;;;;15.55;8.82;;;;;;;5.08;91.63;97356.34;6189300;23;20012;-91
2021/12/24 16:12:36;;;;;;;17.95;9.63;;;;;;;5.08;91.83;97364.28;6189541;23;20313;-90
2021/12/24 16:16:09;;;;;;;15.60;10.18;;;;;;;5.24;91.33;97405.69;6164713;23;20010;-91
2021/12/24 16:22:10;;;;;;;13.73;9.68;;;;;;;4.12;91.63;97259.38;6211113;23;20035;-90
2021/12/24 16:25:09;;;;;;;11.07;8.18;;;;;;;4.41;91.37;97324.94;6187694;23;20019;-90
2021/12/24 16:28:06;;;;;;;12.50;7.80;;;;;;;4.33;90.99;97314.81;6214585;23;20005;-91
2021/12/24 16:30:51;;;;;;;9.85;6.60;;;;;;;5.20;91.25;97460.13;6189394;23;20431;-91
2021/12/24 16:33:19;;;;;;;7.88;6.28;;;;;;;5.13;91.20;97467.47;6189255;23;20418;-91
2021/12/24 16:35:47;;;;;;;7.40;5.15;;;;;;;5.13;90.88;97470.09;6189404;23;20004;-91
2021/12/24 16:38:15;;;;;;;5.47;4.50;;;;;;;4.73;90.09;97420.19;6188955;23;20013;-91
2021/12/24 16:40:42;;;;;;;4.72;4.05;;;;;;;4.43;90.81;97401.31;6214504;23;20004;-91
2021/12/24 16:53:35;;;;;;;5.30;4.07;;;;;;;4.79;90.12;97497.69;6158156;23;20021;-90
2021/12/24 16:56:24;;;;;;;4.88;3.38;;;;;;;4.51;91.10;97464.28;6142220;23;20437;-90
2021/12/24 16:58:51;;;;;;;3.58;2.90;;;;;;;4.34;90.26;97437.13;6128772;23;20033;-90
2021/12/24 17:01:59;;;;;;;3.90;3.20;;;;;;;4.67;90.24;97503.09;6119437;23;20351;-90
2021/12/24 17:43:13;;;;;;;4.30;3.17;;;;;;;4.03;90.12;97509.78;6133138;23;20361;-94
2021/12/24 17:45:40;;;;;;;3.50;3.20;;;;;;;4.13;90.44;97535.56;6130045;23;20084;-94
2021/12/24 17:48:06;;;;;;;3.80;3.05;;;;;;;4.18;90.46;97548.81;6105480;23;20433;-95
2021/12/24 17:50:32;;;;;;;2.88;2.60;;;;;;;4.06;90.28;97527.78;6129538;23;20078;-93
2021/12/24 17:52:57;;;;;;;3.47;3.17;;;;;;;4.05;89.49;97528.81;6105436;23;20001;-92
2021/12/24 17:55:24;;;;;;;3.72;3.42;;;;;;;3.91;90.11;97514.31;6129897;23;20036;-92
2021/12/24 17:57:49;;;;;;;3.42;3.13;;;;;;;3.93;90.12;97543.94;6154215;23;20032;-92
2021/12/24 18:00:16;;;;;;;2.75;2.55;;;;;;;4.01;89.69;97553.28;6129897;23;20005;-94
2021/12/24 18:02:42;;;;;;;3.33;3.03;;;;;;;3.91;89.90;97543.34;6154676;23;20399;-93
2021/12/24 18:05:10;;;;;;;4.35;2.95;;;;;;;3.83;89.75;97538.47;6130068;23;20008;-94
2021/12/24 18:07:36;;;;;;;2.97;2.67;;;;;;;3.68;89.48;97527.66;6129815;23;20005;-93
2021/12/24 18:10:04;;;;;;;3.05;2.75;;;;;;;3.80;89.64;97546.84;6154253;23;20009;-94
2021/12/24 18:17:30;;;;;;;2.53;2.38;;;;;;;3.61;89.52;97524.34;6155820;23;20018;-94
2021/12/24 18:19:55;;;;;;;2.58;2.13;;;;;;;3.73;88.93;97547.00;6129797;23;20071;-93